createdAt,value
2022-09-01T00:04:00.830Z,81.12
2022-09-01T00:09:05.716Z,80.58
2022-09-01T00:14:16.833Z,81.11
2022-09-01T00:19:35.935Z,81.27
2022-09-01T00:24:39.389Z,81.57
2022-09-01T00:29:44.195Z,79.30
2022-09-01T00:34:46.521Z,77.68
2022-09-01T00:39:48.866Z,79.19
2022-09-01T00:44:51.181Z,79.31
2022-09-01T00:49:53.827Z,78.85
2022-09-01T00:55:00.076Z,77.89
2022-09-01T01:00:06.571Z,81.30
2022-09-01T01:05:29.919Z,79.54
2022-09-01T01:10:33.504Z,81.78
2022-09-01T01:15:36.748Z,81.36
2022-09-01T01:20:57.986Z,80.76
2022-09-01T01:26:04.989Z,80.73
2022-09-01T01:31:12.826Z,82.03
2022-09-01T01:36:27.801Z,82.46
2022-09-01T01:41:34.249Z,81.38
2022-09-01T01:46:43.095Z,81.97
2022-09-01T01:51:47.408Z,82.66
2022-09-01T01:56:50.147Z,80.70
2022-09-01T02:02:00.719Z,81.17
2022-09-01T02:07:03.081Z,82.34
2022-09-01T02:12:16.844Z,81.33
2022-09-01T02:17:19.940Z,82.48
2022-09-01T02:22:26.156Z,81.96
2022-09-01T02:27:29.733Z,82.88
2022-09-01T02:32:32.265Z,84.50
2022-09-01T02:37:43.577Z,84.36
2022-09-01T02:42:48.122Z,84.66
2022-09-01T02:47:51.576Z,88.12
2022-09-01T02:52:54.697Z,90.71
2022-09-01T02:57:58.327Z,92.13
2022-09-01T03:03:01.985Z,92.71
2022-09-01T03:08:07.487Z,92.48
2022-09-01T03:13:18.140Z,90.77
2022-09-01T03:18:20.934Z,95.00
2022-09-01T03:23:29.505Z,94.90
2022-09-01T03:28:33.259Z,98.15
2022-09-01T03:33:39.241Z,96.37
2022-09-01T03:38:50.706Z,95.53
2022-09-01T03:43:59.011Z,95.91
2022-09-01T03:49:07.420Z,99.14
2022-09-01T03:54:13.864Z,100.00
2022-09-01T03:59:19.655Z,100.00
2022-09-01T04:04:24.768Z,100.00
2022-09-01T04:09:27.236Z,100.00
2022-09-01T04:14:31.741Z,100.00
2022-09-01T04:19:37.131Z,100.00
2022-09-01T04:24:45.061Z,100.00
2022-09-01T04:29:48.784Z,100.00
2022-09-01T04:34:51.805Z,100.00
2022-09-01T04:39:58.519Z,98.65
2022-09-01T04:45:10.328Z,96.03
2022-09-01T04:50:23.503Z,98.30
2022-09-01T04:55:50.169Z,100.00
2022-09-01T05:00:56.174Z,98.60
2022-09-01T05:06:03.793Z,96.45
2022-09-01T05:11:09.857Z,96.97
2022-09-01T05:16:25.297Z,93.87
2022-09-01T05:21:31.254Z,96.88
2022-09-01T05:26:34.983Z,99.16
2022-09-01T05:31:38.214Z,100.00
2022-09-01T05:36:44.617Z,96.83
2022-09-01T05:41:57.336Z,98.54
2022-09-01T05:47:00.474Z,95.16
2022-09-01T05:52:10.779Z,95.75
2022-09-01T05:57:33.351Z,92.48
2022-09-01T06:02:37.873Z,93.29
2022-09-01T06:07:45.440Z,94.44
2022-09-01T06:12:50.587Z,89.95
2022-09-01T06:18:03.027Z,91.12
2022-09-01T06:23:07.699Z,90.58
2022-09-01T06:28:14.771Z,93.26
2022-09-01T06:33:22.084Z,93.61
2022-09-01T06:38:30.800Z,95.30
2022-09-01T06:43:37.707Z,90.98
2022-09-01T06:48:40.257Z,90.77
2022-09-01T06:53:53.175Z,89.65
2022-09-01T06:59:00.005Z,88.18
2022-09-01T07:04:04.080Z,89.46
2022-09-01T07:09:47.609Z,88.88
2022-09-01T07:20:24.458Z,88.95
2022-09-01T07:25:35.781Z,88.55
2022-09-01T07:31:48.872Z,87.69
2022-09-01T07:37:16.156Z,87.16
2022-09-01T07:47:55.665Z,89.81
2022-09-01T07:52:58.717Z,89.21
2022-09-01T08:04:55.446Z,89.53
2022-09-01T08:10:01.436Z,87.75
2022-09-01T08:15:13.998Z,90.76
2022-09-01T08:20:37.723Z,85.36
2022-09-01T08:26:05.144Z,86.94
2022-09-01T08:31:31.393Z,87.77
2022-09-01T08:36:36.619Z,90.52
2022-09-01T08:41:46.347Z,90.30
2022-09-01T08:46:57.197Z,91.27
2022-09-01T08:52:19.756Z,93.04
2022-09-01T08:57:59.190Z,91.31
2022-09-01T09:03:10.302Z,90.52
2022-09-01T09:08:26.652Z,91.67
2022-09-01T09:13:54.369Z,90.94
2022-09-01T09:19:06.669Z,91.87
2022-09-01T09:24:21.533Z,91.62
2022-09-01T09:29:25.751Z,84.00
2022-09-01T09:34:28.057Z,87.15
2022-09-01T09:39:30.542Z,85.34
2022-09-01T09:44:33.131Z,86.38
2022-09-01T09:49:42.212Z,85.94
2022-09-01T09:55:05.151Z,89.27
2022-09-01T10:00:16.746Z,91.36
2022-09-01T10:05:24.980Z,89.83
2022-09-01T10:10:58.271Z,87.76
2022-09-01T10:16:08.085Z,89.35
2022-09-01T10:21:25.593Z,91.29
2022-09-01T10:26:39.525Z,88.66
2022-09-01T10:31:45.752Z,88.49
2022-09-01T10:36:54.945Z,89.35
2022-09-01T10:42:07.298Z,89.70
2022-09-01T10:47:24.283Z,88.66
2022-09-01T10:52:43.731Z,84.45
2022-09-01T10:57:55.832Z,85.73
2022-09-01T11:03:31.628Z,84.55
2022-09-01T11:08:34.204Z,82.89
2022-09-01T11:13:46.413Z,85.36
2022-09-01T11:18:51.893Z,86.00
2022-09-01T11:24:16.275Z,86.98
2022-09-01T11:29:38.840Z,88.96
2022-09-01T11:34:58.619Z,89.44
2022-09-01T11:40:08.664Z,88.17
2022-09-01T11:45:25.006Z,83.55
2022-09-01T11:50:29.061Z,85.12
2022-09-01T11:55:35.898Z,81.61
2022-09-01T12:00:44.709Z,82.09
2022-09-01T12:05:50.324Z,82.51
2022-09-01T12:11:02.431Z,83.08
2022-09-01T12:16:18.053Z,76.95
2022-09-01T12:21:23.099Z,79.38
2022-09-01T12:26:31.077Z,78.37
2022-09-01T12:31:33.726Z,78.33
2022-09-01T12:36:36.752Z,76.95
2022-09-01T12:41:47.283Z,75.80
2022-09-01T12:46:49.600Z,75.46
2022-09-01T12:52:12.069Z,71.44
2022-09-01T12:57:37.997Z,70.30
2022-09-01T13:02:44.065Z,70.98
2022-09-01T13:07:46.884Z,70.20
2022-09-01T13:12:49.243Z,70.21
2022-09-01T13:17:53.288Z,74.12
2022-09-01T13:22:55.555Z,76.00
2022-09-01T13:28:04.000Z,71.74
2022-09-01T13:33:23.627Z,73.94
2022-09-01T13:38:27.238Z,72.55
2022-09-01T13:43:32.479Z,73.52
2022-09-01T13:53:59.251Z,72.81
2022-09-01T13:59:01.464Z,68.94
2022-09-01T14:04:06.432Z,68.99
2022-09-01T14:09:14.479Z,66.89
2022-09-01T14:14:20.745Z,67.94
2022-09-01T14:19:26.135Z,67.30
2022-09-01T14:24:33.875Z,68.63
2022-09-01T14:34:38.956Z,67.77
2022-09-01T14:39:46.506Z,68.18
2022-09-01T14:44:48.863Z,67.92
2022-09-01T14:49:52.970Z,69.14
2022-09-01T14:54:55.294Z,69.33
2022-09-01T14:59:57.729Z,72.71
2022-09-01T15:05:03.536Z,72.36
2022-09-01T15:10:07.314Z,71.50
2022-09-01T15:15:10.071Z,74.19
2022-09-01T15:20:31.609Z,73.47
2022-09-01T15:25:34.565Z,74.16
2022-09-01T15:30:37.203Z,72.33
2022-09-01T15:35:45.847Z,70.29
2022-09-01T15:40:57.074Z,71.24
2022-09-01T15:46:04.174Z,69.86
2022-09-01T15:51:24.732Z,70.10
2022-09-01T15:56:27.626Z,69.45
2022-09-01T16:01:32.370Z,69.52
2022-09-01T16:06:35.289Z,69.46
2022-09-01T16:11:39.170Z,69.36
2022-09-01T16:16:49.325Z,69.08
2022-09-01T16:22:09.488Z,70.32
2022-09-01T16:27:33.315Z,76.74
2022-09-01T16:32:37.569Z,77.88
2022-09-01T16:37:45.775Z,78.09
2022-09-01T16:42:49.290Z,73.27
2022-09-01T16:48:09.626Z,69.18
2022-09-01T16:53:34.973Z,67.05
2022-09-01T16:58:37.319Z,66.01
2022-09-01T17:03:43.787Z,67.37
2022-09-01T17:09:13.359Z,69.28
2022-09-01T17:14:22.241Z,67.18
2022-09-01T17:19:25.364Z,67.15
2022-09-01T17:24:30.550Z,66.11
2022-09-01T17:29:35.525Z,65.29
2022-09-01T17:34:50.018Z,64.00
2022-09-01T17:40:05.746Z,65.42
2022-09-01T17:45:23.726Z,63.04
2022-09-01T17:55:59.939Z,63.90
2022-09-01T18:01:10.418Z,64.62
2022-09-01T18:06:22.423Z,64.17
2022-09-01T18:11:44.249Z,64.63
2022-09-01T18:16:49.273Z,65.40
2022-09-01T18:22:00.155Z,66.53
2022-09-01T18:27:17.318Z,68.70
2022-09-01T18:32:35.947Z,69.33
2022-09-01T18:37:41.021Z,70.30
2022-09-01T18:48:09.180Z,65.37
2022-09-01T18:53:31.455Z,68.23
2022-09-01T18:58:54.367Z,68.92
2022-09-01T19:04:15.445Z,68.26
2022-09-01T19:09:54.357Z,68.17
2022-09-01T19:15:18.208Z,66.64
2022-09-01T19:20:29.624Z,68.30
2022-09-01T19:25:37.902Z,68.47
2022-09-01T19:30:42.823Z,67.92
2022-09-01T19:35:49.162Z,68.08
2022-09-01T19:40:57.566Z,68.57
2022-09-01T19:46:14.815Z,69.37
2022-09-01T19:51:20.810Z,67.99
2022-09-01T19:56:37.063Z,69.67
2022-09-01T20:01:42.972Z,69.77
2022-09-01T20:06:51.074Z,70.89
2022-09-01T20:11:57.332Z,70.44
2022-09-01T20:17:07.295Z,71.02
2022-09-01T20:22:13.787Z,70.87
2022-09-01T20:27:18.841Z,69.53
2022-09-01T20:37:49.554Z,69.74
2022-09-01T20:43:03.375Z,69.02
2022-09-01T20:48:07.266Z,69.21
2022-09-01T20:53:18.053Z,69.02
2022-09-01T20:58:42.011Z,68.69
2022-09-01T21:03:54.470Z,67.42
2022-09-01T21:09:10.684Z,68.29
2022-09-01T21:14:19.334Z,69.38
2022-09-01T21:19:23.689Z,69.77
2022-09-01T21:24:26.009Z,69.81
2022-09-01T21:29:54.612Z,68.86
2022-09-01T21:34:56.091Z,69.88
2022-09-01T21:39:58.439Z,71.39
2022-09-01T21:45:07.122Z,71.71
2022-09-01T21:50:10.233Z,70.91
2022-09-01T21:55:17.494Z,69.59
2022-09-01T22:00:25.200Z,68.80
2022-09-01T22:05:31.201Z,68.57
2022-09-01T22:10:35.863Z,68.56
2022-09-01T22:15:43.143Z,67.92
2022-09-01T22:20:48.823Z,67.88
2022-09-01T22:25:51.287Z,67.60
2022-09-01T22:30:54.678Z,66.70
2022-09-01T22:35:59.088Z,67.20
2022-09-01T22:41:02.373Z,67.49
2022-09-01T22:46:05.998Z,67.22
2022-09-01T22:51:11.678Z,66.95
2022-09-01T22:56:20.465Z,67.72
2022-09-01T23:01:25.137Z,67.25
2022-09-01T23:06:28.742Z,68.59
2022-09-01T23:11:31.050Z,68.41
2022-09-01T23:16:37.906Z,68.82
2022-09-01T23:21:40.230Z,68.41
2022-09-01T23:26:42.979Z,68.93
2022-09-01T23:31:45.387Z,69.14
2022-09-01T23:36:48.936Z,68.28
2022-09-01T23:41:51.951Z,68.76
2022-09-01T23:46:54.217Z,68.45
2022-09-01T23:51:56.460Z,68.88
2022-09-01T23:57:02.933Z,69.25
